createdAt,value
2022-09-11T00:02:01.714Z,96449.41
2022-09-11T00:04:30.747Z,96452.94
2022-09-11T00:07:00.748Z,96442.50
2022-09-11T00:09:29.667Z,96440.53
2022-09-11T00:11:58.442Z,96440.91
2022-09-11T00:14:29.393Z,96437.56
2022-09-11T00:16:58.117Z,96443.38
2022-09-11T00:19:27.033Z,96434.66
2022-09-11T00:21:57.861Z,96440.44
2022-09-11T00:24:26.684Z,96430.03
2022-09-11T00:26:55.395Z,96438.75
2022-09-11T00:29:24.188Z,96428.34
2022-09-11T00:31:53.189Z,96425.31
2022-09-11T00:34:23.137Z,96425.38
2022-09-11T00:36:54.051Z,96426.34
2022-09-11T00:39:22.780Z,96409.19
2022-09-11T00:41:51.630Z,96415.31
2022-09-11T00:44:20.334Z,96414.94
2022-09-11T00:46:50.096Z,96406.41
2022-09-11T00:49:33.523Z,96409.16
2022-09-11T00:52:16.133Z,96415.19
2022-09-11T00:54:52.839Z,96399.06
2022-09-11T00:57:25.548Z,96406.47
2022-09-11T00:59:59.008Z,96400.41
2022-09-11T01:02:31.192Z,96401.66
2022-09-11T01:05:01.409Z,96395.97
2022-09-11T01:07:34.133Z,96388.06
2022-09-11T01:10:04.786Z,96389.13
2022-09-11T01:13:05.617Z,96393.31
2022-09-11T01:15:42.021Z,96381.81
2022-09-11T01:18:22.318Z,96375.03
2022-09-11T01:21:05.384Z,96385.69
2022-09-11T01:24:12.327Z,96376.75
2022-09-11T01:27:02.779Z,96365.59
2022-09-11T01:29:42.791Z,96375.09
2022-09-11T01:32:40.541Z,96369.03
2022-09-11T01:35:21.550Z,96367.19
2022-09-11T01:38:00.516Z,96369.63
2022-09-11T01:40:35.711Z,96364.97
2022-09-11T01:43:13.532Z,96366.94
2022-09-11T01:45:46.950Z,96369.50
2022-09-11T01:48:22.032Z,96363.22
2022-09-11T01:50:53.905Z,96357.56
2022-09-11T01:53:29.587Z,96345.56
2022-09-11T01:56:08.286Z,96345.03
2022-09-11T01:58:41.861Z,96338.97
2022-09-11T02:01:23.988Z,96343.59
2022-09-11T02:04:03.246Z,96329.38
2022-09-11T02:06:41.336Z,96333.66
2022-09-11T02:09:15.172Z,96330.69
2022-09-11T02:11:47.581Z,96334.91
2022-09-11T02:14:25.850Z,96343.66
2022-09-11T02:17:04.609Z,96339.94
2022-09-11T02:19:33.793Z,96339.56
2022-09-11T02:22:02.729Z,96338.00
2022-09-11T02:24:31.577Z,96336.97
2022-09-11T02:27:04.784Z,96333.34
2022-09-11T02:29:35.143Z,96324.00
2022-09-11T02:32:06.133Z,96333.25
2022-09-11T02:34:37.443Z,96319.94
2022-09-11T02:37:35.983Z,96333.44
2022-09-11T02:40:15.331Z,96328.97
2022-09-11T02:43:18.508Z,96327.44
2022-09-11T02:46:10.116Z,96329.34
2022-09-11T02:49:13.092Z,96325.97
2022-09-11T02:51:56.492Z,96316.56
2022-09-11T02:54:48.209Z,96311.72
2022-09-11T02:57:43.922Z,96309.47
2022-09-11T03:00:14.457Z,96305.78
2022-09-11T03:02:44.756Z,96304.47
2022-09-11T03:05:14.104Z,96314.38
2022-09-11T03:07:43.388Z,96305.41
2022-09-11T03:10:12.422Z,96314.75
2022-09-11T03:12:42.389Z,96312.94
2022-09-11T03:15:13.223Z,96297.66
2022-09-11T03:17:44.382Z,96298.88
2022-09-11T03:20:13.490Z,96311.56
2022-09-11T03:22:42.278Z,96302.41
2022-09-11T03:25:12.548Z,96301.00
2022-09-11T03:27:42.664Z,96303.47
2022-09-11T03:30:13.862Z,96304.22
2022-09-11T03:32:42.846Z,96294.13
2022-09-11T03:35:14.341Z,96300.66
2022-09-11T03:37:43.269Z,96292.72
2022-09-11T03:40:12.397Z,96294.31
2022-09-11T03:42:41.242Z,96286.22
2022-09-11T03:45:10.427Z,96275.63
2022-09-11T03:47:41.414Z,96286.69
2022-09-11T03:50:11.982Z,96283.88
2022-09-11T03:52:40.790Z,96272.19
2022-09-11T03:55:10.068Z,96274.78
2022-09-11T03:57:42.609Z,96281.25
2022-09-11T04:00:13.728Z,96269.50
2022-09-11T04:02:56.799Z,96268.38
2022-09-11T04:05:34.935Z,96265.06
2022-09-11T04:08:04.163Z,96265.66
2022-09-11T04:10:34.958Z,96264.88
2022-09-11T04:13:05.751Z,96251.25
2022-09-11T04:15:36.218Z,96256.91
2022-09-11T04:18:09.167Z,96239.50
2022-09-11T04:20:40.508Z,96243.63
2022-09-11T04:23:09.830Z,96246.44
2022-09-11T04:25:39.422Z,96243.19
2022-09-11T04:28:08.990Z,96237.44
2022-09-11T04:30:40.662Z,96228.56
2022-09-11T04:33:09.787Z,96216.88
2022-09-11T04:35:42.443Z,96214.47
2022-09-11T04:38:12.193Z,96219.25
2022-09-11T04:40:42.163Z,96220.97
2022-09-11T04:43:12.688Z,96208.66
2022-09-11T04:45:42.261Z,96213.38
2022-09-11T04:48:12.865Z,96201.25
2022-09-11T04:50:41.937Z,96191.38
2022-09-11T04:53:24.766Z,96187.44
2022-09-11T04:55:53.656Z,96184.09
2022-09-11T04:58:22.826Z,96171.47
2022-09-11T05:00:53.556Z,96161.31
2022-09-11T05:03:22.588Z,96167.28
2022-09-11T05:05:51.596Z,96161.22
2022-09-11T05:08:24.220Z,96155.84
2022-09-11T05:10:54.526Z,96143.53
2022-09-11T05:13:24.166Z,96146.06
2022-09-11T05:15:52.998Z,96148.91
2022-09-11T05:18:21.800Z,96145.19
2022-09-11T05:21:01.199Z,96144.63
2022-09-11T05:23:33.628Z,96141.56
2022-09-11T05:26:05.545Z,96140.59
2022-09-11T05:28:34.914Z,96138.03
2022-09-11T05:31:12.933Z,96130.91
2022-09-11T05:33:41.985Z,96127.25
2022-09-11T05:36:13.192Z,96117.50
2022-09-11T05:38:43.499Z,96125.84
2022-09-11T05:41:14.448Z,96119.31
2022-09-11T05:43:44.357Z,96123.28
2022-09-11T05:46:16.896Z,96115.56
2022-09-11T05:48:47.657Z,96111.66
2022-09-11T05:51:22.119Z,96102.84
2022-09-11T05:53:59.501Z,96097.94
2022-09-11T05:56:28.944Z,96093.69
2022-09-11T05:59:03.017Z,96101.94
2022-09-11T06:01:39.329Z,96098.28
2022-09-11T06:04:19.040Z,96086.81
2022-09-11T06:06:50.104Z,96094.50
2022-09-11T06:09:20.480Z,96090.13
2022-09-11T06:11:49.932Z,96084.19
2022-09-11T06:14:18.861Z,96075.66
2022-09-11T06:16:48.364Z,96080.97
2022-09-11T06:19:18.016Z,96084.31
2022-09-11T06:21:48.167Z,96081.16
2022-09-11T06:24:33.549Z,96078.34
2022-09-11T06:27:02.392Z,96074.88
2022-09-11T06:29:34.231Z,96067.41
2022-09-11T06:32:04.385Z,96061.13
2022-09-11T06:34:34.252Z,96064.06
2022-09-11T06:37:07.103Z,96064.50
2022-09-11T06:39:36.159Z,96053.13
2022-09-11T06:42:05.470Z,96050.56
2022-09-11T06:44:37.339Z,96053.84
2022-09-11T06:47:07.539Z,96058.31
2022-09-11T06:49:38.199Z,96052.28
2022-09-11T06:52:29.632Z,96048.75
2022-09-11T06:55:08.996Z,96031.00
2022-09-11T06:57:42.201Z,96043.63
2022-09-11T07:00:19.941Z,96038.56
2022-09-11T07:02:49.095Z,96034.06
2022-09-11T07:05:18.525Z,96035.38
2022-09-11T07:07:52.357Z,96032.56
2022-09-11T07:10:21.353Z,96032.38
2022-09-11T07:12:56.297Z,96027.72
2022-09-11T07:15:25.154Z,96020.72
2022-09-11T07:17:55.026Z,96022.78
2022-09-11T07:20:24.389Z,96013.94
2022-09-11T07:22:54.347Z,96010.72
2022-09-11T07:25:23.338Z,96005.53
2022-09-11T07:27:55.588Z,96004.53
2022-09-11T07:30:24.937Z,96003.66
2022-09-11T07:32:57.152Z,95999.00
2022-09-11T07:35:26.116Z,96000.09
2022-09-11T07:37:55.815Z,96004.69
2022-09-11T07:40:27.486Z,95995.16
2022-09-11T07:42:58.898Z,95984.16
2022-09-11T07:45:28.731Z,95986.25
2022-09-11T07:47:58.098Z,95993.84
2022-09-11T07:50:27.359Z,95992.69
2022-09-11T07:52:56.189Z,95988.22
2022-09-11T07:55:25.661Z,95982.19
2022-09-11T07:57:56.030Z,95973.03
2022-09-11T08:00:26.272Z,95973.91
2022-09-11T08:03:07.891Z,95985.75
2022-09-11T08:05:39.496Z,95972.41
2022-09-11T08:08:12.776Z,95973.53
2022-09-11T08:10:41.654Z,95978.94
2022-09-11T08:13:10.794Z,95973.09
2022-09-11T08:15:47.468Z,95964.31
2022-09-11T08:18:16.606Z,95968.94
2022-09-11T08:20:46.425Z,95957.25
2022-09-11T08:23:16.110Z,95957.84
2022-09-11T08:25:45.154Z,95949.34
2022-09-11T08:28:14.525Z,95946.09
2022-09-11T08:30:44.315Z,95942.38
2022-09-11T08:33:13.374Z,95934.16
2022-09-11T08:35:43.296Z,95925.50
2022-09-11T08:38:12.139Z,95919.59
2022-09-11T08:40:41.654Z,95931.78
2022-09-11T08:43:20.124Z,95917.28
2022-09-11T08:45:50.585Z,95923.66
2022-09-11T08:48:28.608Z,95928.47
2022-09-11T08:50:57.693Z,95923.88
2022-09-11T08:53:28.012Z,95915.66
2022-09-11T08:56:04.244Z,95908.47
2022-09-11T08:58:47.847Z,95912.16
2022-09-11T09:01:40.595Z,95914.00
2022-09-11T09:04:42.708Z,95917.75
2022-09-11T09:08:05.138Z,95916.63
2022-09-11T09:10:50.790Z,95901.63
2022-09-11T09:13:48.323Z,95908.56
2022-09-11T09:16:40.749Z,95906.22
2022-09-11T09:19:16.261Z,95907.25
2022-09-11T09:22:16.976Z,95889.25
2022-09-11T09:24:52.856Z,95896.66
2022-09-11T09:27:36.287Z,95890.00
2022-09-11T09:30:14.106Z,95900.41
2022-09-11T09:32:52.505Z,95902.28
2022-09-11T09:35:27.131Z,95908.44
2022-09-11T09:37:56.425Z,95903.16
2022-09-11T09:40:26.867Z,95908.59
2022-09-11T09:43:20.164Z,95902.47
2022-09-11T09:46:07.515Z,95896.63
2022-09-11T09:48:40.452Z,95898.25
2022-09-11T09:51:13.958Z,95899.84
2022-09-11T09:54:01.934Z,95891.06
2022-09-11T09:56:38.265Z,95897.38
2022-09-11T09:59:10.291Z,95902.19
2022-09-11T10:01:47.243Z,95897.59
2022-09-11T10:04:21.434Z,95905.09
2022-09-11T10:07:00.314Z,95901.13
2022-09-11T10:09:30.869Z,95893.31
2022-09-11T10:12:06.645Z,95888.06
2022-09-11T10:14:52.644Z,95892.25
2022-09-11T10:17:31.798Z,95893.59
2022-09-11T10:20:23.581Z,95896.91
2022-09-11T10:22:53.682Z,95891.94
2022-09-11T10:25:28.218Z,95883.19
2022-09-11T10:28:20.019Z,95891.81
2022-09-11T10:30:59.973Z,95891.09
2022-09-11T10:33:31.427Z,95893.97
2022-09-11T10:36:02.539Z,95898.44
2022-09-11T10:38:41.160Z,95886.88
2022-09-11T10:41:19.785Z,95886.31
2022-09-11T10:44:01.127Z,95882.19
2022-09-11T10:46:40.731Z,95877.28
2022-09-11T10:49:22.507Z,95878.72
2022-09-11T10:52:17.897Z,95877.06
2022-09-11T10:55:01.717Z,95875.38
2022-09-11T10:57:41.129Z,95875.59
2022-09-11T11:00:22.752Z,95866.88
2022-09-11T11:02:58.813Z,95868.66
2022-09-11T11:06:15.290Z,95872.69
2022-09-11T11:09:03.771Z,95868.28
2022-09-11T11:11:41.133Z,95865.38
2022-09-11T11:14:46.459Z,95859.38
2022-09-11T11:17:28.910Z,95864.22
2022-09-11T11:20:21.797Z,95860.50
2022-09-11T11:23:16.674Z,95860.63
2022-09-11T11:26:07.184Z,95856.91
2022-09-11T11:29:20.685Z,95868.66
2022-09-11T11:32:20.689Z,95859.50
2022-09-11T11:35:20.940Z,95863.91
2022-09-11T11:37:53.899Z,95855.84
2022-09-11T11:40:42.443Z,95860.16
2022-09-11T11:43:18.018Z,95848.25
2022-09-11T11:45:50.157Z,95860.28
2022-09-11T11:48:47.029Z,95853.31
2022-09-11T11:51:25.453Z,95855.66
2022-09-11T11:54:10.315Z,95844.84
2022-09-11T11:57:01.382Z,95857.25
2022-09-11T11:59:48.979Z,95856.13
2022-09-11T12:02:42.125Z,95849.56
2022-09-11T12:05:25.192Z,95850.72
2022-09-11T12:07:54.558Z,95846.88
2022-09-11T12:10:39.192Z,95846.50
2022-09-11T12:13:14.384Z,95846.09
2022-09-11T12:16:12.618Z,95843.41
2022-09-11T12:18:43.876Z,95843.41
2022-09-11T12:21:25.201Z,95841.50
2022-09-11T12:23:53.882Z,95848.47
2022-09-11T12:26:28.907Z,95837.66
2022-09-11T12:29:13.675Z,95834.56
2022-09-11T12:31:51.466Z,95830.31
2022-09-11T12:34:48.256Z,95841.53
2022-09-11T12:37:39.243Z,95838.44
2022-09-11T12:40:19.406Z,95837.66
2022-09-11T12:42:58.099Z,95832.25
2022-09-11T12:45:35.391Z,95838.47
2022-09-11T12:48:10.816Z,95832.25
2022-09-11T12:50:40.949Z,95830.72
2022-09-11T12:53:18.200Z,95835.34
2022-09-11T12:55:58.830Z,95815.63
2022-09-11T12:58:41.431Z,95834.22
2022-09-11T13:01:20.554Z,95836.50
2022-09-11T13:04:21.756Z,95830.72
2022-09-11T13:07:00.114Z,95816.00
2022-09-11T13:09:41.091Z,95826.84
2022-09-11T13:12:24.824Z,95824.13
2022-09-11T13:15:00.733Z,95824.13
2022-09-11T13:17:35.077Z,95814.47
2022-09-11T13:20:10.833Z,95811.41
2022-09-11T13:22:40.072Z,95801.72
2022-09-11T13:25:17.607Z,95820.66
2022-09-11T13:27:58.499Z,95809.06
2022-09-11T13:30:27.673Z,95810.59
2022-09-11T13:33:09.207Z,95799.41
2022-09-11T13:35:41.960Z,95804.81
2022-09-11T13:38:24.633Z,95799.00
2022-09-11T13:41:13.884Z,95800.97
2022-09-11T13:43:44.875Z,95804.81
2022-09-11T13:46:16.809Z,95807.91
2022-09-11T13:48:48.029Z,95793.59
2022-09-11T13:51:33.529Z,95802.09
2022-09-11T13:54:13.915Z,95793.56
2022-09-11T13:56:52.220Z,95785.84
2022-09-11T13:59:42.798Z,95785.84
2022-09-11T14:02:41.481Z,95778.13
2022-09-11T14:05:33.153Z,95776.19
2022-09-11T14:08:08.425Z,95775.41
2022-09-11T14:10:43.135Z,95777.34
2022-09-11T14:13:43.649Z,95770.78
2022-09-11T14:16:15.265Z,95775.00
2022-09-11T14:19:16.184Z,95768.81
2022-09-11T14:21:47.797Z,95777.72
2022-09-11T14:24:45.816Z,95775.78
2022-09-11T14:27:33.418Z,95772.69
2022-09-11T14:30:30.647Z,95769.97
2022-09-11T14:33:24.968Z,95774.59
2022-09-11T14:36:04.649Z,95762.22
2022-09-11T14:38:38.790Z,95754.50
2022-09-11T14:41:08.485Z,95756.81
2022-09-11T14:43:39.474Z,95747.16
2022-09-11T14:46:08.364Z,95741.34
2022-09-11T14:48:37.321Z,95720.88
2022-09-11T14:51:11.249Z,95722.00
2022-09-11T14:53:43.817Z,95721.25
2022-09-11T14:56:12.801Z,95714.66
2022-09-11T14:58:41.726Z,95721.22
2022-09-11T15:01:14.598Z,95730.47
2022-09-11T15:03:43.846Z,95728.13
2022-09-11T15:06:19.758Z,95712.97
2022-09-11T15:08:48.745Z,95724.16
2022-09-11T15:11:17.661Z,95736.50
2022-09-11T15:14:10.973Z,95727.19
2022-09-11T15:16:36.222Z,95726.41
2022-09-11T15:19:05.201Z,95739.13
2022-09-11T15:21:37.615Z,95722.53
2022-09-11T15:24:06.891Z,95729.47
2022-09-11T15:26:37.980Z,95720.97
2022-09-11T15:29:11.370Z,95725.59
2022-09-11T15:31:40.432Z,95716.00
2022-09-11T15:34:09.383Z,95695.88
2022-09-11T15:36:39.066Z,95693.97
2022-09-11T15:39:09.388Z,95695.50
2022-09-11T15:41:38.706Z,95696.59
2022-09-11T15:44:13.085Z,95698.84
2022-09-11T15:46:41.904Z,95703.44
2022-09-11T15:49:11.080Z,95699.88
2022-09-11T15:51:40.783Z,95703.31
2022-09-11T15:54:11.562Z,95704.47
2022-09-11T15:56:40.310Z,95698.56
2022-09-11T15:59:10.772Z,95686.19
2022-09-11T16:01:41.569Z,95692.38
2022-09-11T16:04:14.382Z,95698.47
2022-09-11T16:06:46.206Z,95694.56
2022-09-11T16:09:19.314Z,95691.44
2022-09-11T16:11:49.450Z,95685.25
2022-09-11T16:14:22.847Z,95682.53
2022-09-11T16:16:52.512Z,95681.34
2022-09-11T16:19:23.526Z,95668.94
2022-09-11T16:21:57.103Z,95677.84
2022-09-11T16:24:28.206Z,95682.09
2022-09-11T16:26:57.286Z,95673.97
2022-09-11T16:29:51.192Z,95674.66
2022-09-11T16:32:28.905Z,95691.25
2022-09-11T16:34:58.210Z,95683.13
2022-09-11T16:37:28.403Z,95683.13
2022-09-11T16:39:57.262Z,95678.13
2022-09-11T16:42:27.198Z,95667.25
2022-09-11T16:44:56.124Z,95677.38
2022-09-11T16:47:24.900Z,95666.53
2022-09-11T16:50:09.496Z,95669.31
2022-09-11T16:52:39.627Z,95672.03
2022-09-11T16:55:10.332Z,95673.22
2022-09-11T16:57:40.623Z,95664.38
2022-09-11T17:00:11.139Z,95667.06
2022-09-11T17:02:39.941Z,95657.78
2022-09-11T17:05:09.719Z,95660.06
2022-09-11T17:07:38.557Z,95654.25
2022-09-11T17:10:08.012Z,95657.22
2022-09-11T17:12:37.876Z,95658.94
2022-09-11T17:15:07.455Z,95655.94
2022-09-11T17:17:38.515Z,95654.44
2022-09-11T17:20:09.939Z,95652.97
2022-09-11T17:22:39.961Z,95639.91
2022-09-11T17:25:09.134Z,95619.09
2022-09-11T17:27:39.209Z,95637.69
2022-09-11T17:30:08.525Z,95633.44
2022-09-11T17:32:37.867Z,95637.25
2022-09-11T17:35:06.958Z,95625.56
2022-09-11T17:37:35.735Z,95637.50
2022-09-11T17:40:09.399Z,95629.38
2022-09-11T17:42:39.421Z,95618.16
2022-09-11T17:45:08.813Z,95623.63
2022-09-11T17:47:37.618Z,95624.81
2022-09-11T17:50:06.821Z,95621.84
2022-09-11T17:52:37.430Z,95612.94
2022-09-11T17:55:06.590Z,95619.53
2022-09-11T17:57:35.327Z,95622.63
2022-09-11T18:00:06.264Z,95611.50
2022-09-11T18:02:41.211Z,95614.25
2022-09-11T18:05:10.334Z,95609.63
2022-09-11T18:07:39.678Z,95608.88
2022-09-11T18:10:09.234Z,95601.97
2022-09-11T18:12:39.360Z,95603.94
2022-09-11T18:15:08.933Z,95594.31
2022-09-11T18:17:38.723Z,95600.50
2022-09-11T18:20:08.622Z,95578.09
2022-09-11T18:22:39.891Z,95593.94
2022-09-11T18:25:10.293Z,95596.25
2022-09-11T18:27:39.905Z,95593.53
2022-09-11T18:30:09.851Z,95592.78
2022-09-11T18:32:39.964Z,95583.88
2022-09-11T18:35:09.980Z,95569.56
2022-09-11T18:37:39.328Z,95577.66
2022-09-11T18:40:08.561Z,95586.91
2022-09-11T18:42:37.297Z,95564.47
2022-09-11T18:45:07.130Z,95584.94
2022-09-11T18:47:35.857Z,95584.47
2022-09-11T18:50:05.237Z,95584.47
2022-09-11T18:52:34.161Z,95579.47
2022-09-11T18:55:04.012Z,95573.28
2022-09-11T18:57:37.394Z,95571.75
2022-09-11T19:00:14.694Z,95566.41
2022-09-11T19:02:45.370Z,95568.72
2022-09-11T19:05:18.395Z,95569.88
2022-09-11T19:07:48.923Z,95570.69
2022-09-11T19:10:18.673Z,95569.16
2022-09-11T19:12:49.810Z,95578.06
2022-09-11T19:15:18.582Z,95569.22
2022-09-11T19:17:48.905Z,95564.63
2022-09-11T19:20:20.361Z,95551.50
2022-09-11T19:22:49.246Z,95559.25
2022-09-11T19:25:18.515Z,95548.47
2022-09-11T19:27:47.231Z,95546.94
2022-09-11T19:30:16.917Z,95542.31
2022-09-11T19:32:45.904Z,95545.00
2022-09-11T19:35:14.804Z,95535.00
2022-09-11T19:37:43.613Z,95541.16
2022-09-11T19:40:12.389Z,95529.22
2022-09-11T19:42:41.313Z,95537.28
2022-09-11T19:45:10.102Z,95530.72
2022-09-11T19:47:38.868Z,95528.03
2022-09-11T19:50:09.100Z,95513.00
2022-09-11T19:52:37.866Z,95518.38
2022-09-11T19:55:06.883Z,95511.41
2022-09-11T19:57:35.609Z,95520.28
2022-09-11T20:00:05.747Z,95514.53
2022-09-11T20:02:35.808Z,95504.88
2022-09-11T20:05:04.625Z,95513.38
2022-09-11T20:07:33.357Z,95511.50
2022-09-11T20:10:02.157Z,95512.69
2022-09-11T20:12:37.582Z,95497.63
2022-09-11T20:15:07.948Z,95494.22
2022-09-11T20:17:36.697Z,95494.97
2022-09-11T20:20:07.418Z,95490.34
2022-09-11T20:22:36.168Z,95489.97
2022-09-11T20:25:05.461Z,95489.97
2022-09-11T20:27:34.853Z,95484.53
2022-09-11T20:30:04.689Z,95479.56
2022-09-11T20:32:36.629Z,95477.63
2022-09-11T20:35:06.454Z,95477.63
2022-09-11T20:37:35.384Z,95475.72
2022-09-11T20:40:07.116Z,95479.94
2022-09-11T20:42:35.859Z,95469.91
2022-09-11T20:45:05.696Z,95468.38
2022-09-11T20:47:34.397Z,95454.88
2022-09-11T20:50:03.615Z,95468.41
2022-09-11T20:52:38.650Z,95458.34
2022-09-11T20:55:08.774Z,95453.38
2022-09-11T20:57:37.503Z,95438.31
2022-09-11T21:00:07.929Z,95451.47
2022-09-11T21:02:36.942Z,95454.16
2022-09-11T21:05:06.091Z,95448.00
2022-09-11T21:07:34.784Z,95456.47
2022-09-11T21:10:03.537Z,95444.53
2022-09-11T21:12:32.594Z,95441.03
2022-09-11T21:15:01.570Z,95436.03
2022-09-11T21:17:31.381Z,95436.81
2022-09-11T21:20:00.337Z,95431.41
2022-09-11T21:22:29.107Z,95431.41
2022-09-11T21:24:58.079Z,95427.94
2022-09-11T21:27:26.812Z,95431.03
2022-09-11T21:29:56.069Z,95414.47
2022-09-11T21:32:24.865Z,95407.13
2022-09-11T21:34:53.648Z,95404.03
2022-09-11T21:37:22.970Z,95415.63
2022-09-11T21:39:52.147Z,95417.94
2022-09-11T21:42:21.038Z,95415.63
2022-09-11T21:44:49.731Z,95426.78
2022-09-11T21:47:18.844Z,95400.56
2022-09-11T21:49:47.709Z,95413.69
2022-09-11T21:52:16.464Z,95421.78
2022-09-11T21:54:45.283Z,95422.16
2022-09-11T21:57:14.071Z,95420.22
2022-09-11T21:59:42.826Z,95424.47
2022-09-11T22:02:12.614Z,95419.84
2022-09-11T22:04:41.718Z,95429.88
2022-09-11T22:07:12.830Z,95441.03
2022-09-11T22:09:41.614Z,95434.13
2022-09-11T22:12:11.166Z,95418.28
2022-09-11T22:14:39.936Z,95421.00
2022-09-11T22:17:08.862Z,95430.25
2022-09-11T22:19:37.723Z,95419.84
2022-09-11T22:22:07.414Z,95419.47
2022-09-11T22:24:36.118Z,95406.72
2022-09-11T22:27:05.419Z,95389.00
2022-09-11T22:29:34.525Z,95366.66
2022-09-11T22:32:03.765Z,95380.13
2022-09-11T22:34:36.805Z,95381.28
2022-09-11T22:37:06.792Z,95368.19
2022-09-11T22:39:35.604Z,95362.00
2022-09-11T22:42:05.217Z,95350.03
2022-09-11T22:44:33.902Z,95345.78
2022-09-11T22:47:02.789Z,95336.94
2022-09-11T22:49:31.682Z,95322.66
2022-09-11T22:52:00.383Z,95353.13
2022-09-11T22:54:29.163Z,95321.13
2022-09-11T22:56:57.892Z,95333.06
2022-09-11T22:59:26.683Z,95314.56
2022-09-11T23:01:56.378Z,95314.94
2022-09-11T23:04:25.211Z,95304.94
2022-09-11T23:07:12.563Z,95312.66
2022-09-11T23:09:41.333Z,95309.19
2022-09-11T23:12:10.294Z,95308.44
2022-09-11T23:14:39.196Z,95304.19
2022-09-11T23:17:07.954Z,95297.63
2022-09-11T23:19:36.802Z,95299.56
2022-09-11T23:22:05.577Z,95289.13
2022-09-11T23:24:34.638Z,95294.53
2022-09-11T23:27:03.393Z,95290.28
2022-09-11T23:29:32.274Z,95273.31
2022-09-11T23:32:00.986Z,95297.59
2022-09-11T23:34:29.862Z,95293.72
2022-09-11T23:36:58.642Z,95287.91
2022-09-11T23:39:27.480Z,95294.84
2022-09-11T23:41:56.250Z,95279.81
2022-09-11T23:44:24.960Z,95293.66
2022-09-11T23:46:53.806Z,95292.13
2022-09-11T23:49:22.560Z,95291.31
2022-09-11T23:51:51.322Z,95285.16
2022-09-11T23:54:20.139Z,95278.19
2022-09-11T23:56:49.389Z,95281.28
2022-09-11T23:59:18.071Z,95288.22
